createdAt,value
2022-10-19T00:01:04.184Z,89.70
2022-10-19T00:03:32.413Z,90.17
2022-10-19T00:06:00.809Z,89.89
2022-10-19T00:08:28.890Z,89.61
2022-10-19T00:10:56.696Z,89.43
2022-10-19T00:13:24.619Z,89.65
2022-10-19T00:15:52.514Z,88.92
2022-10-19T00:18:21.872Z,89.30
2022-10-19T00:20:49.781Z,88.83
2022-10-19T00:23:17.798Z,88.38
2022-10-19T00:25:56.148Z,88.80
2022-10-19T00:28:24.142Z,88.64
2022-10-19T00:30:52.131Z,88.28
2022-10-19T00:33:22.635Z,88.54
2022-10-19T00:35:52.122Z,88.34
2022-10-19T00:38:21.272Z,88.03
2022-10-19T00:40:50.267Z,88.20
2022-10-19T00:43:20.453Z,87.45
2022-10-19T00:45:48.608Z,87.33
2022-10-19T00:48:20.108Z,87.38
2022-10-19T00:50:51.394Z,86.91
2022-10-19T00:53:19.486Z,87.25
2022-10-19T00:55:47.950Z,87.04
2022-10-19T00:58:16.353Z,87.02
2022-10-19T01:00:44.470Z,86.98
2022-10-19T01:03:13.525Z,87.43
2022-10-19T01:05:42.452Z,87.55
2022-10-19T01:08:12.788Z,87.16
2022-10-19T01:10:47.928Z,87.21
2022-10-19T01:13:26.989Z,87.30
2022-10-19T01:16:03.025Z,87.48
2022-10-19T01:18:39.321Z,87.35
2022-10-19T01:21:22.669Z,87.20
2022-10-19T01:24:37.014Z,87.05
2022-10-19T01:27:34.242Z,87.46
2022-10-19T01:30:08.601Z,87.21
2022-10-19T01:32:46.648Z,87.14
2022-10-19T01:35:24.625Z,87.30
2022-10-19T01:38:03.657Z,87.21
2022-10-19T01:40:37.926Z,87.40
2022-10-19T01:43:13.234Z,87.26
2022-10-19T01:45:48.616Z,87.12
2022-10-19T01:48:22.681Z,87.26
2022-10-19T01:50:55.205Z,87.57
2022-10-19T01:53:25.578Z,87.41
2022-10-19T01:55:56.538Z,87.54
2022-10-19T01:58:29.397Z,87.55
2022-10-19T02:01:02.696Z,87.22
2022-10-19T02:03:30.850Z,87.51
2022-10-19T02:06:00.616Z,87.35
2022-10-19T02:08:32.819Z,87.44
2022-10-19T02:11:02.688Z,87.47
2022-10-19T02:13:31.749Z,87.64
2022-10-19T02:16:04.820Z,87.33
2022-10-19T02:18:37.617Z,87.42
2022-10-19T02:21:07.272Z,87.59
2022-10-19T02:23:35.500Z,87.40
2022-10-19T02:26:04.071Z,87.69
2022-10-19T02:28:32.951Z,87.99
2022-10-19T02:31:02.483Z,88.03
2022-10-19T02:33:30.956Z,88.12
2022-10-19T02:35:59.938Z,87.99
2022-10-19T02:38:28.364Z,87.90
2022-10-19T02:41:05.601Z,87.67
2022-10-19T02:43:35.879Z,87.85
2022-10-19T02:46:09.464Z,87.74
2022-10-19T02:48:40.130Z,87.85
2022-10-19T02:51:07.955Z,88.09
2022-10-19T02:53:35.980Z,88.13
2022-10-19T02:56:03.969Z,88.22
2022-10-19T02:58:31.787Z,88.74
2022-10-19T03:00:59.823Z,88.32
2022-10-19T03:03:29.114Z,88.40
2022-10-19T03:05:56.927Z,88.67
2022-10-19T03:08:24.916Z,88.48
2022-10-19T03:10:52.912Z,88.47
2022-10-19T03:13:20.740Z,88.64
2022-10-19T03:15:48.874Z,88.69
2022-10-19T03:18:16.814Z,89.05
2022-10-19T03:20:46.095Z,88.71
2022-10-19T03:23:14.075Z,88.77
2022-10-19T03:25:41.998Z,89.21
2022-10-19T03:28:09.848Z,89.19
2022-10-19T03:30:37.853Z,89.28
2022-10-19T03:33:05.846Z,89.33
2022-10-19T03:35:33.667Z,89.27
2022-10-19T03:38:02.914Z,89.08
2022-10-19T03:40:30.791Z,89.32
2022-10-19T03:42:58.601Z,89.29
2022-10-19T03:45:26.524Z,89.19
2022-10-19T03:47:54.447Z,89.40
2022-10-19T03:50:22.308Z,89.25
2022-10-19T03:52:50.675Z,89.24
2022-10-19T03:55:20.048Z,89.41
2022-10-19T03:57:47.886Z,89.51
2022-10-19T04:00:16.616Z,89.42
2022-10-19T04:02:44.614Z,89.46
2022-10-19T04:05:12.492Z,89.60
2022-10-19T04:07:40.415Z,89.47
2022-10-19T04:10:09.056Z,89.76
2022-10-19T04:12:38.253Z,89.54
2022-10-19T04:15:06.887Z,89.50
2022-10-19T04:17:35.108Z,89.69
2022-10-19T04:20:03.133Z,89.69
2022-10-19T04:22:31.060Z,89.94
2022-10-19T04:24:59.077Z,90.07
2022-10-19T04:27:26.858Z,90.25
2022-10-19T04:29:56.109Z,90.30
2022-10-19T04:32:24.059Z,89.99
2022-10-19T04:34:51.939Z,90.37
2022-10-19T04:37:19.951Z,90.58
2022-10-19T04:39:47.824Z,90.59
2022-10-19T04:42:15.615Z,90.40
2022-10-19T04:44:43.625Z,90.57
2022-10-19T04:47:12.938Z,90.74
2022-10-19T04:49:40.744Z,90.90
2022-10-19T04:52:08.644Z,90.54
2022-10-19T04:54:36.581Z,90.33
2022-10-19T04:57:05.207Z,90.91
2022-10-19T04:59:33.297Z,90.48
2022-10-19T05:02:01.235Z,90.51
2022-10-19T05:04:30.622Z,90.78
2022-10-19T05:06:58.554Z,90.57
2022-10-19T05:09:26.676Z,90.54
2022-10-19T05:11:54.626Z,91.16
2022-10-19T05:14:22.918Z,90.93
2022-10-19T05:16:50.731Z,90.68
2022-10-19T05:19:18.961Z,90.89
2022-10-19T05:21:48.277Z,90.80
2022-10-19T05:24:16.138Z,91.15
2022-10-19T05:26:44.100Z,91.29
2022-10-19T05:29:14.692Z,91.30
2022-10-19T05:31:42.647Z,91.09
2022-10-19T05:34:10.789Z,91.34
2022-10-19T05:36:40.262Z,91.11
2022-10-19T05:39:14.578Z,91.31
2022-10-19T05:41:44.550Z,91.26
2022-10-19T05:44:16.181Z,91.26
2022-10-19T05:46:44.602Z,91.54
2022-10-19T05:49:12.887Z,91.55
2022-10-19T05:51:40.953Z,91.76
2022-10-19T05:54:11.268Z,91.95
2022-10-19T05:56:39.862Z,91.83
2022-10-19T05:59:09.397Z,91.44
2022-10-19T06:01:38.106Z,92.08
2022-10-19T06:04:07.602Z,91.67
2022-10-19T06:06:35.804Z,92.12
2022-10-19T06:09:04.688Z,91.96
2022-10-19T06:11:36.514Z,92.13
2022-10-19T06:14:07.312Z,92.35
2022-10-19T06:16:36.021Z,92.47
2022-10-19T06:19:05.111Z,92.50
2022-10-19T06:21:34.799Z,92.28
2022-10-19T06:24:05.910Z,91.91
2022-10-19T06:26:36.344Z,91.86
2022-10-19T06:29:05.365Z,91.87
2022-10-19T06:31:35.028Z,91.63
2022-10-19T06:34:03.685Z,92.22
2022-10-19T06:36:32.772Z,94.27
2022-10-19T06:39:01.987Z,95.53
2022-10-19T06:41:30.317Z,96.33
2022-10-19T06:43:59.633Z,96.49
2022-10-19T06:46:28.569Z,96.29
2022-10-19T06:48:58.216Z,96.05
2022-10-19T06:51:27.779Z,94.83
2022-10-19T06:53:57.071Z,94.00
2022-10-19T06:56:26.771Z,92.21
2022-10-19T06:58:55.296Z,91.54
2022-10-19T07:01:25.336Z,89.84
2022-10-19T07:03:53.947Z,88.74
2022-10-19T07:06:22.477Z,87.50
2022-10-19T07:08:50.539Z,85.92
2022-10-19T07:11:22.589Z,83.60
2022-10-19T07:13:51.026Z,81.18
2022-10-19T07:16:21.034Z,80.62
2022-10-19T07:18:52.186Z,80.28
2022-10-19T07:21:21.929Z,81.22
2022-10-19T07:23:49.870Z,81.13
2022-10-19T07:26:21.362Z,79.72
2022-10-19T07:28:50.018Z,78.12
2022-10-19T07:31:20.338Z,77.42
2022-10-19T07:33:48.529Z,77.14
2022-10-19T07:36:18.019Z,76.37
2022-10-19T07:38:45.862Z,76.06
2022-10-19T07:41:16.325Z,74.60
2022-10-19T07:43:46.433Z,73.18
2022-10-19T07:46:16.241Z,71.89
2022-10-19T07:48:45.361Z,70.92
2022-10-19T07:51:15.457Z,69.46
2022-10-19T07:53:45.648Z,67.78
2022-10-19T07:56:15.297Z,66.51
2022-10-19T07:58:43.853Z,66.21
2022-10-19T08:01:14.269Z,65.01
2022-10-19T08:04:42.761Z,65.11
2022-10-19T08:06:31.085Z,65.04
2022-10-19T08:09:00.902Z,64.25
2022-10-19T08:11:31.343Z,63.21
2022-10-19T08:13:59.905Z,62.14
2022-10-19T08:16:29.869Z,61.44
2022-10-19T08:19:00.307Z,60.90
2022-10-19T08:21:28.860Z,60.68
2022-10-19T08:23:56.873Z,59.70
2022-10-19T08:26:26.725Z,58.94
2022-10-19T08:28:54.642Z,58.27
2022-10-19T08:31:23.787Z,57.76
2022-10-19T08:33:52.155Z,57.74
2022-10-19T08:36:21.408Z,56.61
2022-10-19T08:38:50.151Z,56.14
2022-10-19T08:41:28.480Z,54.66
2022-10-19T08:44:24.246Z,53.62
2022-10-19T08:47:03.392Z,54.64
2022-10-19T08:49:33.243Z,54.44
2022-10-19T08:52:05.881Z,53.43
2022-10-19T08:54:42.087Z,52.71
2022-10-19T08:57:24.481Z,51.67
2022-10-19T09:00:00.431Z,51.79
2022-10-19T09:02:41.583Z,51.89
2022-10-19T09:05:20.246Z,51.47
2022-10-19T09:07:51.596Z,52.18
2022-10-19T09:10:24.931Z,51.32
2022-10-19T09:12:58.649Z,50.89
2022-10-19T09:15:35.040Z,50.59
2022-10-19T09:18:03.413Z,51.00
2022-10-19T09:20:39.341Z,49.96
2022-10-19T09:23:21.184Z,49.49
2022-10-19T09:25:51.332Z,49.96
2022-10-19T09:28:39.683Z,48.50
2022-10-19T09:31:14.340Z,48.32
2022-10-19T09:33:45.219Z,48.62
2022-10-19T09:36:22.402Z,48.54
2022-10-19T09:38:55.773Z,48.57
2022-10-19T09:41:25.468Z,48.05
2022-10-19T09:43:55.445Z,47.55
2022-10-19T09:46:38.895Z,46.97
2022-10-19T09:49:09.550Z,47.76
2022-10-19T09:51:47.314Z,47.37
2022-10-19T09:54:27.674Z,47.44
2022-10-19T09:56:57.532Z,47.82
2022-10-19T09:59:29.729Z,47.58
2022-10-19T10:02:13.053Z,46.58
2022-10-19T10:04:40.864Z,47.19
2022-10-19T10:07:17.452Z,46.05
2022-10-19T10:09:46.267Z,46.64
2022-10-19T10:12:16.728Z,46.21
2022-10-19T10:14:45.998Z,45.64
2022-10-19T10:17:18.954Z,45.21
2022-10-19T10:20:05.431Z,44.41
2022-10-19T10:22:35.653Z,44.67
2022-10-19T10:25:13.793Z,44.31
2022-10-19T10:27:42.142Z,45.19
2022-10-19T10:30:18.034Z,44.94
2022-10-19T10:32:51.021Z,45.08
2022-10-19T10:35:22.478Z,45.23
2022-10-19T10:37:51.262Z,45.09
2022-10-19T10:40:25.523Z,44.93
2022-10-19T10:42:56.149Z,45.24
2022-10-19T10:45:27.309Z,45.06
2022-10-19T10:47:57.863Z,44.82
2022-10-19T10:50:32.964Z,44.67
2022-10-19T10:53:02.698Z,44.96
2022-10-19T10:55:31.933Z,44.89
2022-10-19T10:58:13.858Z,43.98
2022-10-19T11:00:43.196Z,44.72
2022-10-19T11:03:21.418Z,43.97
2022-10-19T11:05:54.368Z,43.91
2022-10-19T11:08:27.683Z,43.82
2022-10-19T11:11:00.976Z,43.55
2022-10-19T11:13:32.596Z,43.50
2022-10-19T11:16:04.991Z,43.72
2022-10-19T11:18:39.690Z,43.63
2022-10-19T11:21:12.871Z,43.78
2022-10-19T11:23:53.159Z,43.90
2022-10-19T11:26:59.845Z,43.68
2022-10-19T11:29:38.301Z,43.87
2022-10-19T11:32:17.073Z,43.90
2022-10-19T11:34:59.369Z,43.80
2022-10-19T11:37:31.544Z,43.89
2022-10-19T11:40:14.119Z,43.36
2022-10-19T11:42:51.862Z,43.83
2022-10-19T11:45:31.619Z,44.62
2022-10-19T11:48:15.696Z,45.39
2022-10-19T11:50:54.411Z,45.78
2022-10-19T11:53:34.136Z,46.23
2022-10-19T11:56:08.179Z,46.56
2022-10-19T11:58:51.409Z,46.53
2022-10-19T12:01:32.054Z,46.68
2022-10-19T12:04:19.247Z,47.05
2022-10-19T12:06:56.312Z,47.04
2022-10-19T12:09:35.260Z,47.04
2022-10-19T12:12:19.294Z,46.60
2022-10-19T12:14:54.044Z,46.83
2022-10-19T12:17:27.040Z,46.72
2022-10-19T12:19:57.589Z,46.43
2022-10-19T12:22:31.505Z,46.52
2022-10-19T12:25:02.527Z,46.66
2022-10-19T12:27:35.444Z,47.09
2022-10-19T12:30:08.133Z,47.49
2022-10-19T12:32:49.605Z,47.59
2022-10-19T12:35:33.895Z,47.55
2022-10-19T12:38:09.937Z,47.92
2022-10-19T12:40:44.560Z,48.54
2022-10-19T12:43:22.870Z,48.61
2022-10-19T12:45:55.740Z,48.60
2022-10-19T12:48:25.173Z,48.91
2022-10-19T12:51:17.863Z,49.04
2022-10-19T12:53:50.182Z,49.83
2022-10-19T12:56:21.832Z,49.89
2022-10-19T12:58:56.521Z,50.05
2022-10-19T13:01:29.516Z,49.67
2022-10-19T13:04:12.127Z,49.15
2022-10-19T13:06:43.786Z,48.25
2022-10-19T13:09:25.473Z,47.20
2022-10-19T13:12:28.158Z,46.95
2022-10-19T13:14:57.225Z,47.75
2022-10-19T13:17:44.071Z,49.03
2022-10-19T13:20:45.509Z,49.93
2022-10-19T13:23:42.042Z,50.57
2022-10-19T13:26:34.121Z,51.18
2022-10-19T13:29:02.524Z,51.29
2022-10-19T13:31:33.111Z,51.44
2022-10-19T13:34:01.400Z,51.51
2022-10-19T13:36:29.444Z,51.88
2022-10-19T13:39:08.713Z,51.50
2022-10-19T13:41:57.101Z,50.64
2022-10-19T13:44:31.079Z,50.04
2022-10-19T13:47:19.172Z,49.48
2022-10-19T13:50:09.347Z,48.72
2022-10-19T13:53:03.547Z,48.61
2022-10-19T13:55:57.536Z,49.03
2022-10-19T13:58:51.902Z,48.15
2022-10-19T14:01:34.113Z,48.66
2022-10-19T14:04:18.795Z,49.46
2022-10-19T14:06:53.385Z,49.87
2022-10-19T14:09:43.922Z,50.28
2022-10-19T14:12:19.943Z,50.65
2022-10-19T14:14:50.282Z,51.44
2022-10-19T14:17:21.518Z,51.47
2022-10-19T14:19:52.071Z,52.21
2022-10-19T14:22:24.436Z,52.61
2022-10-19T14:24:52.747Z,52.64
2022-10-19T14:27:24.597Z,52.77
2022-10-19T14:29:55.411Z,53.31
2022-10-19T14:32:26.203Z,53.53
2022-10-19T14:34:55.103Z,53.96
2022-10-19T14:37:25.965Z,54.21
2022-10-19T14:40:03.179Z,54.48
2022-10-19T14:42:39.971Z,54.73
2022-10-19T14:45:15.479Z,54.89
2022-10-19T14:47:58.421Z,55.26
2022-10-19T14:50:33.872Z,55.30
2022-10-19T14:53:19.324Z,55.48
2022-10-19T14:55:49.426Z,55.89
2022-10-19T14:58:22.001Z,55.90
2022-10-19T15:00:53.286Z,56.22
2022-10-19T15:03:25.714Z,56.46
2022-10-19T15:05:57.568Z,56.90
2022-10-19T15:08:34.048Z,57.24
2022-10-19T15:11:02.054Z,57.37
2022-10-19T15:13:35.169Z,57.44
2022-10-19T15:16:07.294Z,57.71
2022-10-19T15:18:55.666Z,58.29
2022-10-19T15:21:23.851Z,58.05
2022-10-19T15:23:53.571Z,58.59
2022-10-19T15:26:28.672Z,59.04
2022-10-19T15:29:09.390Z,59.15
2022-10-19T15:31:38.730Z,59.30
2022-10-19T15:34:06.704Z,59.51
2022-10-19T15:36:34.817Z,59.97
2022-10-19T15:39:18.214Z,60.54
2022-10-19T15:41:53.998Z,60.56
2022-10-19T15:44:33.220Z,61.21
2022-10-19T15:47:25.453Z,60.97
2022-10-19T15:49:56.961Z,60.96
2022-10-19T15:52:26.058Z,61.15
2022-10-19T15:54:55.699Z,61.57
2022-10-19T15:57:28.538Z,61.94
2022-10-19T15:59:58.066Z,62.42
2022-10-19T16:02:27.834Z,62.67
2022-10-19T16:04:56.496Z,62.92
2022-10-19T16:07:28.427Z,62.54
2022-10-19T16:09:56.463Z,62.64
2022-10-19T16:12:26.371Z,62.85
2022-10-19T16:14:54.690Z,63.11
2022-10-19T16:17:22.833Z,63.10
2022-10-19T16:19:52.541Z,64.00
2022-10-19T16:22:20.517Z,64.10
2022-10-19T16:24:48.493Z,64.28
2022-10-19T16:27:16.494Z,63.87
2022-10-19T16:29:45.580Z,64.81
2022-10-19T16:32:13.978Z,65.08
2022-10-19T16:34:42.184Z,65.39
2022-10-19T16:37:11.541Z,64.99
2022-10-19T16:39:39.438Z,65.24
2022-10-19T16:42:07.349Z,65.71
2022-10-19T16:44:35.277Z,65.55
2022-10-19T16:47:03.285Z,65.70
2022-10-19T16:49:31.348Z,66.30
2022-10-19T16:52:00.829Z,66.24
2022-10-19T16:54:30.841Z,66.25
2022-10-19T16:56:59.092Z,66.41
2022-10-19T16:59:27.801Z,66.49
2022-10-19T17:01:55.834Z,66.71
2022-10-19T17:04:23.718Z,67.04
2022-10-19T17:06:51.734Z,66.99
2022-10-19T17:12:10.166Z,67.62
2022-10-19T17:14:40.586Z,67.57
2022-10-19T17:17:09.021Z,68.16
2022-10-19T17:19:37.701Z,67.64
2022-10-19T17:22:05.941Z,67.88
2022-10-19T17:24:33.909Z,67.72
2022-10-19T17:27:03.965Z,68.57
2022-10-19T17:29:33.599Z,68.09
2022-10-19T17:32:01.470Z,68.05
2022-10-19T17:34:29.555Z,68.45
2022-10-19T17:37:00.394Z,69.18
2022-10-19T17:39:29.946Z,69.12
2022-10-19T17:42:02.215Z,68.88
2022-10-19T17:44:31.669Z,69.07
2022-10-19T17:47:01.591Z,69.63
2022-10-19T17:49:30.315Z,69.37
2022-10-19T17:51:58.454Z,69.71
2022-10-19T17:54:26.491Z,69.68
2022-10-19T17:56:54.529Z,69.99
2022-10-19T17:59:34.621Z,70.15
2022-10-19T18:02:11.495Z,70.01
2022-10-19T18:04:40.110Z,69.88
2022-10-19T18:07:07.957Z,70.76
2022-10-19T18:09:36.119Z,69.92
2022-10-19T18:12:04.984Z,69.97
2022-10-19T18:14:35.096Z,71.13
2022-10-19T18:17:03.321Z,70.66
2022-10-19T18:19:32.918Z,70.44
2022-10-19T18:22:00.741Z,70.88
2022-10-19T18:24:28.884Z,71.00
2022-10-19T18:26:56.744Z,70.99
2022-10-19T18:29:26.542Z,71.16
2022-10-19T18:31:55.386Z,71.33
2022-10-19T18:34:25.101Z,71.17
2022-10-19T18:36:54.983Z,71.17
2022-10-19T18:39:23.463Z,71.27
2022-10-19T18:41:54.544Z,71.56
2022-10-19T18:44:26.287Z,71.75
2022-10-19T18:46:56.094Z,71.15
2022-10-19T18:49:24.035Z,71.46
2022-10-19T18:51:55.121Z,71.79
2022-10-19T18:54:26.538Z,71.62
2022-10-19T18:56:55.126Z,72.05
2022-10-19T18:59:23.088Z,71.44
2022-10-19T19:01:51.343Z,71.50
2022-10-19T19:04:19.385Z,71.69
2022-10-19T19:06:47.182Z,71.78
2022-10-19T19:09:15.368Z,72.28
2022-10-19T19:11:44.602Z,72.48
2022-10-19T19:14:15.124Z,72.46
2022-10-19T19:16:44.434Z,72.94
2022-10-19T19:19:13.901Z,72.98
2022-10-19T19:21:44.238Z,72.88
2022-10-19T19:24:15.658Z,73.24
2022-10-19T19:26:48.353Z,73.93
2022-10-19T19:29:17.328Z,73.77
2022-10-19T19:31:45.390Z,73.68
2022-10-19T19:34:13.357Z,74.58
2022-10-19T19:36:47.292Z,74.35
2022-10-19T19:39:16.342Z,74.81
2022-10-19T19:41:46.693Z,74.36
2022-10-19T19:44:14.744Z,74.52
2022-10-19T19:46:42.678Z,74.71
2022-10-19T19:49:10.621Z,75.37
2022-10-19T19:51:38.565Z,75.17
2022-10-19T19:54:06.871Z,75.49
2022-10-19T19:56:34.917Z,75.76
2022-10-19T19:59:04.789Z,75.77
2022-10-19T20:01:33.425Z,76.28
2022-10-19T20:06:37.191Z,76.75
2022-10-19T20:09:07.156Z,76.93
2022-10-19T20:11:39.639Z,76.97
2022-10-19T20:14:10.724Z,77.57
2022-10-19T20:16:38.634Z,77.26
2022-10-19T20:19:08.994Z,77.69
2022-10-19T20:21:37.450Z,77.40
2022-10-19T20:24:05.730Z,77.67
2022-10-19T20:26:34.042Z,78.13
2022-10-19T20:29:03.916Z,78.04
2022-10-19T20:31:39.397Z,78.82
2022-10-19T20:34:13.949Z,78.56
2022-10-19T20:36:42.326Z,79.07
2022-10-19T20:39:10.874Z,79.46
2022-10-19T20:41:39.201Z,79.41
2022-10-19T20:44:07.075Z,79.75
2022-10-19T20:46:37.255Z,79.65
2022-10-19T20:49:05.681Z,79.72
2022-10-19T20:51:36.795Z,80.09
2022-10-19T20:54:07.155Z,80.38
2022-10-19T20:56:36.546Z,80.42
2022-10-19T20:59:07.625Z,80.74
2022-10-19T21:01:38.897Z,80.89
2022-10-19T21:04:09.332Z,81.07
2022-10-19T21:06:40.931Z,81.50
2022-10-19T21:09:09.988Z,81.12
2022-10-19T21:11:39.825Z,81.46
2022-10-19T21:14:11.535Z,81.60
2022-10-19T21:16:41.706Z,81.87
2022-10-19T21:19:12.473Z,81.95
2022-10-19T21:21:42.884Z,81.74
2022-10-19T21:24:12.720Z,81.63
2022-10-19T21:26:41.103Z,81.79
2022-10-19T21:29:10.609Z,81.98
2022-10-19T21:31:43.085Z,81.61
2022-10-19T21:34:15.216Z,81.91
2022-10-19T21:36:43.271Z,81.64
2022-10-19T21:39:11.145Z,81.80
2022-10-19T21:41:39.474Z,81.95
2022-10-19T21:44:07.631Z,81.48
2022-10-19T21:46:35.733Z,82.04
2022-10-19T21:49:05.242Z,81.98
2022-10-19T21:51:37.612Z,82.48
2022-10-19T21:54:07.099Z,82.08
2022-10-19T21:56:35.157Z,82.37
2022-10-19T21:59:03.017Z,82.80
2022-10-19T22:01:37.321Z,81.99
2022-10-19T22:04:12.515Z,82.33
2022-10-19T22:06:40.962Z,82.81
2022-10-19T22:09:11.240Z,82.66
2022-10-19T22:11:39.260Z,82.63
2022-10-19T22:14:07.456Z,82.95
2022-10-19T22:16:37.017Z,82.58
2022-10-19T22:19:06.078Z,82.59
2022-10-19T22:24:06.696Z,82.84
2022-10-19T22:26:37.002Z,83.14
2022-10-19T22:29:06.237Z,82.96
2022-10-19T22:31:35.448Z,83.35
2022-10-19T22:34:06.114Z,83.20
2022-10-19T22:36:35.511Z,83.43
2022-10-19T22:39:03.708Z,83.41
2022-10-19T22:41:31.679Z,83.53
2022-10-19T22:43:59.616Z,83.38
2022-10-19T22:46:27.516Z,83.43
2022-10-19T22:48:55.468Z,83.61
2022-10-19T22:51:23.563Z,83.49
2022-10-19T22:53:52.895Z,83.93
2022-10-19T22:56:21.035Z,83.73
2022-10-19T22:58:49.208Z,84.09
2022-10-19T23:01:17.797Z,84.19
2022-10-19T23:03:45.849Z,84.20
2022-10-19T23:06:16.077Z,84.45
2022-10-19T23:08:44.465Z,84.83
2022-10-19T23:11:14.512Z,84.56
2022-10-19T23:13:43.299Z,84.93
2022-10-19T23:16:11.445Z,85.02
2022-10-19T23:18:41.583Z,85.01
2022-10-19T23:21:12.803Z,84.88
2022-10-19T23:23:41.493Z,85.08
2022-10-19T23:26:12.330Z,85.22
2022-10-19T23:28:43.880Z,85.40
2022-10-19T23:31:13.953Z,85.81
2022-10-19T23:33:42.889Z,85.54
2022-10-19T23:36:14.507Z,85.88
2022-10-19T23:38:42.852Z,85.75
2022-10-19T23:41:11.021Z,86.13
2022-10-19T23:43:39.789Z,86.17
2022-10-19T23:46:09.724Z,86.01
2022-10-19T23:48:38.120Z,86.12
2022-10-19T23:51:07.925Z,86.31
2022-10-19T23:53:41.509Z,86.64
2022-10-19T23:56:12.637Z,86.62
2022-10-19T23:58:40.739Z,86.85
